sensor_id;sensor_type;location;lat;lon;timestamp;P1;P2;P0
74434;PMS7003;62867;52.038;29.256;2023-03-01T00:01:28;21.8;17;9.3
74434;PMS7003;62867;52.038;29.256;2023-03-01T00:06:41;28.6;20.2;11.2
74434;PMS7003;62867;52.038;29.256;2023-03-01T00:11:47;26.8;19.4;10
74434;PMS7003;62867;52.038;29.256;2023-03-01T00:17:03;25.6;18;9.8
74434;PMS7003;62867;52.038;29.256;2023-03-01T00:21:47;26.8;18.6;9.8
74434;PMS7003;62867;52.038;29.256;2023-03-01T00:26:41;28;19.8;10.4
74434;PMS7003;62867;52.038;29.256;2023-03-01T00:32:03;24.6;18;10
74434;PMS7003;62867;52.038;29.256;2023-03-01T00:36:47;25.2;18.8;9.2
74434;PMS7003;62867;52.038;29.256;2023-03-01T00:42:03;24.2;19.4;9.2
74434;PMS7003;62867;52.038;29.256;2023-03-01T00:46:27;23.2;17.4;9.4
74434;PMS7003;62867;52.038;29.256;2023-03-01T00:51:14;25;18.2;9.2
74434;PMS7003;62867;52.038;29.256;2023-03-01T00:56:35;25.8;19;9.6
74434;PMS7003;62867;52.038;29.256;2023-03-01T01:01:45;27.8;21.4;10.4
74434;PMS7003;62867;52.038;29.256;2023-03-01T01:07:03;27.3;19.5;10.5
74434;PMS7003;62867;52.038;29.256;2023-03-01T01:12:03;24.2;18.2;9.2
74434;PMS7003;62867;52.038;29.256;2023-03-01T01:16:41;23.4;17;10.2
74434;PMS7003;62867;52.038;29.256;2023-03-01T01:21:14;26.6;17.8;9.2
74434;PMS7003;62867;52.038;29.256;2023-03-01T01:26:26;26.4;17.4;9
74434;PMS7003;62867;52.038;29.256;2023-03-01T01:31:45;26;16.2;9.4
74434;PMS7003;62867;52.038;29.256;2023-03-01T01:37:03;26.8;19.4;10.6
74434;PMS7003;62867;52.038;29.256;2023-03-01T01:41:26;27.4;19.2;10.6
74434;PMS7003;62867;52.038;29.256;2023-03-01T01:46:41;25.8;20;9.8
74434;PMS7003;62867;52.038;29.256;2023-03-01T01:51:27;23;19;10.6
74434;PMS7003;62867;52.038;29.256;2023-03-01T01:56:49;25.4;19.2;10.4
74434;PMS7003;62867;52.038;29.256;2023-03-01T02:02:03;25.8;18.6;10.2
74434;PMS7003;62867;52.038;29.256;2023-03-01T02:06:28;27;19.8;11.5
74434;PMS7003;62867;52.038;29.256;2023-03-01T02:11:13;27.2;19.2;10.6
74434;PMS7003;62867;52.038;29.256;2023-03-01T02:16:27;24.6;19.6;10.8
74434;PMS7003;62867;52.038;29.256;2023-03-01T02:21:30;23.8;19.2;11
74434;PMS7003;62867;52.038;29.256;2023-03-01T02:27:03;27.8;20;11
74434;PMS7003;62867;52.038;29.256;2023-03-01T02:31:41;25;18.6;10.6
74434;PMS7003;62867;52.038;29.256;2023-03-01T02:36:36;24.4;19.4;10.8
74434;PMS7003;62867;52.038;29.256;2023-03-01T02:41:15;24.4;19.4;10.6
74434;PMS7003;62867;52.038;29.256;2023-03-01T02:47:03;26.8;19;10.6
74434;PMS7003;62867;52.038;29.256;2023-03-01T02:52:07;23.8;18;10.2
74434;PMS7003;62867;52.038;29.256;2023-03-01T02:56:13;27;20.6;11
74434;PMS7003;62867;52.038;29.256;2023-03-01T03:01:13;22.8;16.4;9.4
74434;PMS7003;62867;52.038;29.256;2023-03-01T03:06:50;27;20;10.8
74434;PMS7003;62867;52.038;29.256;2023-03-01T03:11:47;26.2;20.2;10.6
74434;PMS7003;62867;52.038;29.256;2023-03-01T03:17:03;25;18.4;8.6
74434;PMS7003;62867;52.038;29.256;2023-03-01T03:21:27;24;18.2;10
74434;PMS7003;62867;52.038;29.256;2023-03-01T03:26:27;26.2;19;10.4
74434;PMS7003;62867;52.038;29.256;2023-03-01T03:31:35;32.4;22.8;12
74434;PMS7003;62867;52.038;29.256;2023-03-01T03:36:47;31;21.4;11.6
74434;PMS7003;62867;52.038;29.256;2023-03-01T03:42:03;30.4;22.8;11.8
74434;PMS7003;62867;52.038;29.256;2023-03-01T03:46:27;30.4;22.2;11.6
74434;PMS7003;62867;52.038;29.256;2023-03-01T03:51:39;28.8;22.2;12.8
74434;PMS7003;62867;52.038;29.256;2023-03-01T03:56:13;25.8;18;11.2
74434;PMS7003;62867;52.038;29.256;2023-03-01T04:01:45;30;19.4;10.8
74434;PMS7003;62867;52.038;29.256;2023-03-01T04:07:01;26.8;21.8;11.5
74434;PMS7003;62867;52.038;29.256;2023-03-01T04:11:27;24.8;19.4;10.6
74434;PMS7003;62867;52.038;29.256;2023-03-01T04:16:27;21.6;17.6;10.8
74434;PMS7003;62867;52.038;29.256;2023-03-01T04:21:13;24;18.6;11
74434;PMS7003;62867;52.038;29.256;2023-03-01T04:26:47;24.2;18.2;10.2
74434;PMS7003;62867;52.038;29.256;2023-03-01T04:32:03;23.6;17.2;10.4
74434;PMS7003;62867;52.038;29.256;2023-03-01T04:36:26;22.8;16.8;9.4
74434;PMS7003;62867;52.038;29.256;2023-03-01T04:41:27;21.8;16.4;8.8
74434;PMS7003;62867;52.038;29.256;2023-03-01T04:46:25;31.6;25;12.8
74434;PMS7003;62867;52.038;29.256;2023-03-01T04:51:47;33;22.4;11.8
74434;PMS7003;62867;52.038;29.256;2023-03-01T04:57:01;35.4;24.6;13.2
74434;PMS7003;62867;52.038;29.256;2023-03-01T05:01:14;29.4;22.6;13
74434;PMS7003;62867;52.038;29.256;2023-03-01T05:06:13;23.5;18.5;10.8
74434;PMS7003;62867;52.038;29.256;2023-03-01T05:11:39;26;19.2;10.4
74434;PMS7003;62867;52.038;29.256;2023-03-01T05:16:45;24;19.2;10.8
74434;PMS7003;62867;52.038;29.256;2023-03-01T05:21:59;24;17.8;10.6
74434;PMS7003;62867;52.038;29.256;2023-03-01T05:26:33;24.4;19.2;11.4
74434;PMS7003;62867;52.038;29.256;2023-03-01T05:31:39;24.2;18;9.4
74434;PMS7003;62867;52.038;29.256;2023-03-01T05:36:23;27.2;19;10.6
74434;PMS7003;62867;52.038;29.256;2023-03-01T05:41:45;24.6;17.8;10.6
74434;PMS7003;62867;52.038;29.256;2023-03-01T05:47:03;27.4;20.2;12.2
74434;PMS7003;62867;52.038;29.256;2023-03-01T05:51:37;31.8;23.8;13.2
74434;PMS7003;62867;52.038;29.256;2023-03-01T05:56:37;28.2;20.2;11
74434;PMS7003;62867;52.038;29.256;2023-03-01T06:01:13;23.4;19;11.2
74434;PMS7003;62867;52.038;29.256;2023-03-01T06:06:45;25.6;19.4;10
74434;PMS7003;62867;52.038;29.256;2023-03-01T06:12:03;23.8;20.5;11.3
74434;PMS7003;62867;52.038;29.256;2023-03-01T06:16:47;26.8;21.4;12.2
74434;PMS7003;62867;52.038;29.256;2023-03-01T06:21:39;29.2;22;12.4
74434;PMS7003;62867;52.038;29.256;2023-03-01T06:26:13;24.8;19.8;11.4
74434;PMS7003;62867;52.038;29.256;2023-03-01T06:31:23;24.2;19.2;10.8
74434;PMS7003;62867;52.038;29.256;2023-03-01T06:37:03;23.2;17.6;10
74434;PMS7003;62867;52.038;29.256;2023-03-01T06:41:45;26.6;18.8;10.8
74434;PMS7003;62867;52.038;29.256;2023-03-01T06:46:39;29.6;22.6;13.2
74434;PMS7003;62867;52.038;29.256;2023-03-01T06:51:25;27;21.2;11.8
74434;PMS7003;62867;52.038;29.256;2023-03-01T06:56:47;27.4;20.6;11.2
74434;PMS7003;62867;52.038;29.256;2023-03-01T07:02:03;23.4;18;10.4
74434;PMS7003;62867;52.038;29.256;2023-03-01T07:06:49;24.8;18.4;10.8
74434;PMS7003;62867;52.038;29.256;2023-03-01T07:11:39;29.8;20.8;12
74434;PMS7003;62867;52.038;29.256;2023-03-01T07:16:41;24.6;18.6;10
74434;PMS7003;62867;52.038;29.256;2023-03-01T07:21:51;22.2;18;10.8
74434;PMS7003;62867;52.038;29.256;2023-03-01T07:27:07;25.4;19.6;10.2
74434;PMS7003;62867;52.038;29.256;2023-03-01T07:31:51;26.6;20.8;12.4
74434;PMS7003;62867;52.038;29.256;2023-03-01T07:36:55;34.2;24.6;14.8
74434;PMS7003;62867;52.038;29.256;2023-03-01T07:41:41;28.6;20.6;12
74434;PMS7003;62867;52.038;29.256;2023-03-01T07:46:51;32.8;22.2;12.6
74434;PMS7003;62867;52.038;29.256;2023-03-01T07:52:09;38.4;31;17.8
74434;PMS7003;62867;52.038;29.256;2023-03-01T07:56:51;38.4;31.4;18
74434;PMS7003;62867;52.038;29.256;2023-03-01T08:01:39;44.2;33.4;18.8
74434;PMS7003;62867;52.038;29.256;2023-03-01T08:06:23;33.6;26.8;15.4
74434;PMS7003;62867;52.038;29.256;2023-03-01T08:11:49;23;19.3;12
74434;PMS7003;62867;52.038;29.256;2023-03-01T08:17:05;28.6;22.8;12.2
74434;PMS7003;62867;52.038;29.256;2023-03-01T08:21:37;37.6;27.2;14.8
74434;PMS7003;62867;52.038;29.256;2023-03-01T08:26:37;35.2;25.8;14.2
74434;PMS7003;62867;52.038;29.256;2023-03-01T08:31:14;28.2;20.8;11.6
74434;PMS7003;62867;52.038;29.256;2023-03-01T08:36:51;26;21.8;12.2
74434;PMS7003;62867;52.038;29.256;2023-03-01T08:42:05;25.6;19;10
74434;PMS7003;62867;52.038;29.256;2023-03-01T08:46:51;9.4;7.4;4.6
74434;PMS7003;62867;52.038;29.256;2023-03-01T08:51:39;12.8;9.8;5
74434;PMS7003;62867;52.038;29.256;2023-03-01T08:56:13;11;7.2;4.4
74434;PMS7003;62867;52.038;29.256;2023-03-01T09:01:49;4.6;4;2.8
74434;PMS7003;62867;52.038;29.256;2023-03-01T09:07:06;23.2;17.4;10.2
74434;PMS7003;62867;52.038;29.256;2023-03-01T09:11:49;42.3;32.5;19.3
74434;PMS7003;62867;52.038;29.256;2023-03-01T09:16:39;53.4;38;22
74434;PMS7003;62867;52.038;29.256;2023-03-01T09:21:27;36.2;30.6;19.4
74434;PMS7003;62867;52.038;29.256;2023-03-01T09:27:05;20;15.4;9.4
74434;PMS7003;62867;52.038;29.256;2023-03-01T09:31:51;10.4;8.2;4.4
74434;PMS7003;62867;52.038;29.256;2023-03-01T09:36:15;10.8;8;4.8
74434;PMS7003;62867;52.038;29.256;2023-03-01T09:41:55;14.8;10.2;6.4
74434;PMS7003;62867;52.038;29.256;2023-03-01T09:46:23;12.2;8.2;4.4
74434;PMS7003;62867;52.038;29.256;2023-03-01T09:52:09;10.6;7;4.4
74434;PMS7003;62867;52.038;29.256;2023-03-01T09:56:54;11;9.6;5.8
74434;PMS7003;62867;52.038;29.256;2023-03-01T10:01:38;12.8;11;6.8
74434;PMS7003;62867;52.038;29.256;2023-03-01T10:06:38;14;10.2;6
74434;PMS7003;62867;52.038;29.256;2023-03-01T10:11:24;9.3;7.5;4.3
74434;PMS7003;62867;52.038;29.256;2023-03-01T10:17:04;8.2;7;4
74434;PMS7003;62867;52.038;29.256;2023-03-01T10:21:51;19;14.4;8.2
74434;PMS7003;62867;52.038;29.256;2023-03-01T10:26:41;20.2;13.6;8.4
74434;PMS7003;62867;52.038;29.256;2023-03-01T10:32:03;17.4;13.4;8
74434;PMS7003;62867;52.038;29.256;2023-03-01T10:36:13;20.4;15.6;9.6
74434;PMS7003;62867;52.038;29.256;2023-03-01T10:42:04;26.4;20.8;10.8
74434;PMS7003;62867;52.038;29.256;2023-03-01T10:46:49;24;19.6;10.8
74434;PMS7003;62867;52.038;29.256;2023-03-01T10:51:35;21.2;18;10.4
74434;PMS7003;62867;52.038;29.256;2023-03-01T10:57:04;18.4;14.2;8.8
74434;PMS7003;62867;52.038;29.256;2023-03-01T11:01:24;18.6;14.2;8.6
74434;PMS7003;62867;52.038;29.256;2023-03-01T11:07:03;31;23.8;12.2
74434;PMS7003;62867;52.038;29.256;2023-03-01T11:11:51;55.8;40.6;22.6
74434;PMS7003;62867;52.038;29.256;2023-03-01T11:16:38;63;47.3;27.8
74434;PMS7003;62867;52.038;29.256;2023-03-01T11:22:04;69.6;51.6;31
74434;PMS7003;62867;52.038;29.256;2023-03-01T11:26:13;55.2;41.6;25
74434;PMS7003;62867;52.038;29.256;2023-03-01T11:32:06;44.2;32.2;18.6
74434;PMS7003;62867;52.038;29.256;2023-03-01T11:36:48;27.2;21.4;13
74434;PMS7003;62867;52.038;29.256;2023-03-01T11:41:38;48.2;36.2;21.6
74434;PMS7003;62867;52.038;29.256;2023-03-01T11:47:06;24;16.6;9.4
74434;PMS7003;62867;52.038;29.256;2023-03-01T11:51:15;14.4;11.2;7
74434;PMS7003;62867;52.038;29.256;2023-03-01T11:57:03;11.2;9.4;6
74434;PMS7003;62867;52.038;29.256;2023-03-01T12:02:11;6;5.2;2.4
74434;PMS7003;62867;52.038;29.256;2023-03-01T12:06:52;12;9.8;5.6
74434;PMS7003;62867;52.038;29.256;2023-03-01T12:12:05;13.4;10.8;5.4
74434;PMS7003;62867;52.038;29.256;2023-03-01T12:16:15;18;12.5;7
74434;PMS7003;62867;52.038;29.256;2023-03-01T12:21:53;11.8;9;4.8
74434;PMS7003;62867;52.038;29.256;2023-03-01T12:26:50;12.4;9;3.8
74434;PMS7003;62867;52.038;29.256;2023-03-01T12:31:39;34.8;26;14.8
74434;PMS7003;62867;52.038;29.256;2023-03-01T12:37:12;52.8;37.6;21.6
74434;PMS7003;62867;52.038;29.256;2023-03-01T12:41:37;53.2;40.2;23.4
74434;PMS7003;62867;52.038;29.256;2023-03-01T12:47:05;85.6;69.8;42.6
74434;PMS7003;62867;52.038;29.256;2023-03-01T12:51:49;124;101.4;58.4
74434;PMS7003;62867;52.038;29.256;2023-03-01T12:56:35;23.8;18.8;11.2
74434;PMS7003;62867;52.038;29.256;2023-03-01T13:02:05;66;49.6;33
74434;PMS7003;62867;52.038;29.256;2023-03-01T13:06:15;30.2;25.4;16.6
74434;PMS7003;62867;52.038;29.256;2023-03-01T13:12:03;19.4;15.4;9.8
74434;PMS7003;62867;52.038;29.256;2023-03-01T13:17:03;18.3;15.8;9
74434;PMS7003;62867;52.038;29.256;2023-03-01T13:21:29;36;27;16.6
74434;PMS7003;62867;52.038;29.256;2023-03-01T13:27:09;19.6;16;10.4
74434;PMS7003;62867;52.038;29.256;2023-03-01T13:48:16;78;54;30
74434;PMS7003;62867;52.038;29.256;2023-03-01T14:08:44;132;118;72
74434;PMS7003;62867;52.038;29.256;2023-03-01T14:14:17;66.8;49.4;31.2
74434;PMS7003;62867;52.038;29.256;2023-03-01T14:18:46;44.2;36;23.8
74434;PMS7003;62867;52.038;29.256;2023-03-01T14:24:17;67.4;51;29.8
74434;PMS7003;62867;52.038;29.256;2023-03-01T14:29:00;37.6;31.6;19.4
74434;PMS7003;62867;52.038;29.256;2023-03-01T14:33:35;57.6;44;26.2
74434;PMS7003;62867;52.038;29.256;2023-03-01T14:39:16;22.8;16.6;10.2
74434;PMS7003;62867;52.038;29.256;2023-03-01T14:43:47;35.8;27.8;17.2
74434;PMS7003;62867;52.038;29.256;2023-03-01T14:48:36;31.8;23.8;13.8
74434;PMS7003;62867;52.038;29.256;2023-03-01T14:54:00;17.2;13.2;7.6
74434;PMS7003;62867;52.038;29.256;2023-03-01T14:58:24;10;7.4;3.6
74434;PMS7003;62867;52.038;29.256;2023-03-01T15:04:12;8.5;6.3;3.5
74434;PMS7003;62867;52.038;29.256;2023-03-01T15:08:34;33.8;24.6;14.8
74434;PMS7003;62867;52.038;29.256;2023-03-01T15:13:48;137.6;106.4;59.6
74434;PMS7003;62867;52.038;29.256;2023-03-01T15:19:01;68;50;29.4
74434;PMS7003;62867;52.038;29.256;2023-03-01T15:23:25;23.4;18.8;10
74434;PMS7003;62867;52.038;29.256;2023-03-01T15:29:15;14.8;12.4;6.8
74434;PMS7003;62867;52.038;29.256;2023-03-01T15:33:46;21.4;15.8;8.2
74434;PMS7003;62867;52.038;29.256;2023-03-01T15:38:26;22.8;16.4;8.8
74434;PMS7003;62867;52.038;29.256;2023-03-01T15:44:00;20;14.2;7.8
74434;PMS7003;62867;52.038;29.256;2023-03-01T15:48:36;37.4;26.8;14.4
74434;PMS7003;62867;52.038;29.256;2023-03-01T15:54:16;26.4;18;10.6
74434;PMS7003;62867;52.038;29.256;2023-03-01T15:58:34;22.4;18;11
74434;PMS7003;62867;52.038;29.256;2023-03-01T16:03:34;20.8;16;9
74434;PMS7003;62867;52.038;29.256;2023-03-01T16:09:00;20;14.2;8.6
74434;PMS7003;62867;52.038;29.256;2023-03-01T16:13:36;22;15.8;9
74434;PMS7003;62867;52.038;29.256;2023-03-01T16:19:15;26.4;18.8;9.8
74434;PMS7003;62867;52.038;29.256;2023-03-01T16:23:46;24;18.2;10.4
74434;PMS7003;62867;52.038;29.256;2023-03-01T16:28:48;23;17.8;11.2
74434;PMS7003;62867;52.038;29.256;2023-03-01T16:34:00;27.8;20.8;11.8
74434;PMS7003;62867;52.038;29.256;2023-03-01T16:38:24;30.2;23;13.2
74434;PMS7003;62867;52.038;29.256;2023-03-01T16:44:12;36.8;28.4;17.4
74434;PMS7003;62867;52.038;29.256;2023-03-01T16:48:46;35.2;26.6;16.2
74434;PMS7003;62867;52.038;29.256;2023-03-01T16:53:24;33.8;25.6;15.6
74434;PMS7003;62867;52.038;29.256;2023-03-01T16:58:58;33.8;27.8;16.2
74434;PMS7003;62867;52.038;29.256;2023-03-01T17:03:48;41.3;31.3;19.3
74434;PMS7003;62867;52.038;29.256;2023-03-01T17:09:12;54.8;40.8;26
74434;PMS7003;62867;52.038;29.256;2023-03-01T17:13:46;51.8;39;24
74434;PMS7003;62867;52.038;29.256;2023-03-01T17:19:02;60;44.6;27.2
74434;PMS7003;62867;52.038;29.256;2023-03-01T17:24:14;55.2;42.2;26.2
74434;PMS7003;62867;52.038;29.256;2023-03-01T17:28:25;40.2;30.4;18.6
74434;PMS7003;62867;52.038;29.256;2023-03-01T17:33:52;34.4;27;17
74434;PMS7003;62867;52.038;29.256;2023-03-01T17:38:35;23.6;19;12.2
74434;PMS7003;62867;52.038;29.256;2023-03-01T17:44:00;23.4;17.8;11
74434;PMS7003;62867;52.038;29.256;2023-03-01T17:49:14;16.6;12.4;7.2
74434;PMS7003;62867;52.038;29.256;2023-03-01T17:53:34;14;11;7.2
74434;PMS7003;62867;52.038;29.256;2023-03-01T17:59:04;16;12.6;7.6
74434;PMS7003;62867;52.038;29.256;2023-03-01T18:03:49;19.5;13.8;7.8
74434;PMS7003;62867;52.038;29.256;2023-03-01T18:09:04;17.8;13.6;8.2
74434;PMS7003;62867;52.038;29.256;2023-03-01T18:14:04;23;16.4;9
74434;PMS7003;62867;52.038;29.256;2023-03-01T18:18:24;26.8;17.4;8.6
74434;PMS7003;62867;52.038;29.256;2023-03-01T18:24:02;20.6;14.2;7.2
74434;PMS7003;62867;52.038;29.256;2023-03-01T18:28:48;17.4;12;6.2
74434;PMS7003;62867;52.038;29.256;2023-03-01T18:33:53;18.6;13.4;8
74434;PMS7003;62867;52.038;29.256;2023-03-01T18:39:16;15.6;11.8;6.2
74434;PMS7003;62867;52.038;29.256;2023-03-01T18:44:02;14.2;10.2;6.2
74434;PMS7003;62867;52.038;29.256;2023-03-01T18:49:00;16.4;12.4;6.8
74434;PMS7003;62867;52.038;29.256;2023-03-01T18:53:34;14.8;10;6
74434;PMS7003;62867;52.038;29.256;2023-03-01T18:59:04;13;9.4;5.6
74434;PMS7003;62867;52.038;29.256;2023-03-01T19:04:16;11.8;8;4.5
74434;PMS7003;62867;52.038;29.256;2023-03-01T19:08:36;9.4;6.8;4.6
74434;PMS7003;62867;52.038;29.256;2023-03-01T19:14:16;7.8;5.8;2.6
74434;PMS7003;62867;52.038;29.256;2023-03-01T19:18:24;8.6;6.4;3.6
74434;PMS7003;62867;52.038;29.256;2023-03-01T19:24:04;8;5.8;3
74434;PMS7003;62867;52.038;29.256;2023-03-01T19:29:14;7.2;5.8;3
74434;PMS7003;62867;52.038;29.256;2023-03-01T19:33:36;12.2;7.8;4.2
74434;PMS7003;62867;52.038;29.256;2023-03-01T19:39:01;9.2;6;3.6
74434;PMS7003;62867;52.038;29.256;2023-03-01T19:43:46;8.2;5.2;3.2
74434;PMS7003;62867;52.038;29.256;2023-03-01T19:49:00;9.8;6;3
74434;PMS7003;62867;52.038;29.256;2023-03-01T19:54:14;8.4;6;2.8
74434;PMS7003;62867;52.038;29.256;2023-03-01T19:58:24;9.6;7.2;4.8
74434;PMS7003;62867;52.038;29.256;2023-03-01T20:04:02;9.2;6.4;4.2
74434;PMS7003;62867;52.038;29.256;2023-03-01T20:08:44;10.8;6.3;3
74434;PMS7003;62867;52.038;29.256;2023-03-01T20:14:02;9.2;7.6;3.2
74434;PMS7003;62867;52.038;29.256;2023-03-01T20:19:14;10;7.6;4.2
74434;PMS7003;62867;52.038;29.256;2023-03-01T20:23:36;10.4;8;4
74434;PMS7003;62867;52.038;29.256;2023-03-01T20:29:05;12.2;8;4.2
74434;PMS7003;62867;52.038;29.256;2023-03-01T20:34:02;11.2;8;4.2
74434;PMS7003;62867;52.038;29.256;2023-03-01T20:39:14;12.8;9.2;5.4
74434;PMS7003;62867;52.038;29.256;2023-03-01T20:44:14;14.6;10.4;5.6
74434;PMS7003;62867;52.038;29.256;2023-03-01T20:48:24;14.6;12.2;6.4
74434;PMS7003;62867;52.038;29.256;2023-03-01T20:54:02;10.8;8.6;5.8
74434;PMS7003;62867;52.038;29.256;2023-03-01T20:58:24;11.8;8.8;4.2
74434;PMS7003;62867;52.038;29.256;2023-03-01T21:04:16;11.2;10;4.8
74434;PMS7003;62867;52.038;29.256;2023-03-01T21:08:46;9.5;6.5;4.5
74434;PMS7003;62867;52.038;29.256;2023-03-01T21:13:24;12.4;7;4.2
74434;PMS7003;62867;52.038;29.256;2023-03-01T21:18:50;10.8;7.2;3
74434;PMS7003;62867;52.038;29.256;2023-03-01T21:24:02;9.6;6.6;4
74434;PMS7003;62867;52.038;29.256;2023-03-01T21:29:16;11;8.4;5
74434;PMS7003;62867;52.038;29.256;2023-03-01T21:33:48;13.2;8.4;4.6
74434;PMS7003;62867;52.038;29.256;2023-03-01T21:38:36;11.8;7;4.2
74434;PMS7003;62867;52.038;29.256;2023-03-01T21:43:48;13;9.6;5.6
74434;PMS7003;62867;52.038;29.256;2023-03-01T21:49:03;12.6;9;4.6
74434;PMS7003;62867;52.038;29.256;2023-03-01T21:54:15;12.6;8.6;4.6
74434;PMS7003;62867;52.038;29.256;2023-03-01T21:58:48;20;14.6;7.6
74434;PMS7003;62867;52.038;29.256;2023-03-01T22:03:24;21.8;14.4;7.2
74434;PMS7003;62867;52.038;29.256;2023-03-01T22:08:48;20.8;13.3;7.5
74434;PMS7003;62867;52.038;29.256;2023-03-01T22:14:00;19.8;13.6;7.8
74434;PMS7003;62867;52.038;29.256;2023-03-01T22:19:14;25;18;10
74434;PMS7003;62867;52.038;29.256;2023-03-01T22:24:00;21.4;14.2;7.8
74434;PMS7003;62867;52.038;29.256;2023-03-01T22:28:24;18;11.4;6.2
74434;PMS7003;62867;52.038;29.256;2023-03-01T22:34:00;15;10;5.8
74434;PMS7003;62867;52.038;29.256;2023-03-01T22:39:00;16;12.4;5.8
74434;PMS7003;62867;52.038;29.256;2023-03-01T22:44:12;14.2;11;6.4
74434;PMS7003;62867;52.038;29.256;2023-03-01T22:48:48;14;7.6;4.2
74434;PMS7003;62867;52.038;29.256;2023-03-01T22:53:24;11.2;8.4;4.2
74434;PMS7003;62867;52.038;29.256;2023-03-01T22:58:46;13.4;7.8;4.4
74434;PMS7003;62867;52.038;29.256;2023-03-01T23:03:48;10.4;6;3.6
74434;PMS7003;62867;52.038;29.256;2023-03-01T23:09:14;11;7.8;3.5
74434;PMS7003;62867;52.038;29.256;2023-03-01T23:13:36;10.6;6;2.4
74434;PMS7003;62867;52.038;29.256;2023-03-01T23:18:24;7.8;6.4;3.2
74434;PMS7003;62867;52.038;29.256;2023-03-01T23:23:36;7.4;5.8;2.4
74434;PMS7003;62867;52.038;29.256;2023-03-01T23:29:00;11.2;7.8;4.2
74434;PMS7003;62867;52.038;29.256;2023-03-01T23:34:14;11.6;7.4;4.6
74434;PMS7003;62867;52.038;29.256;2023-03-01T23:38:36;10;6.8;3.8
74434;PMS7003;62867;52.038;29.256;2023-03-01T23:43:24;13;9.6;4.4
74434;PMS7003;62867;52.038;29.256;2023-03-01T23:48:46;11.2;5.6;3.4
74434;PMS7003;62867;52.038;29.256;2023-03-01T23:54:00;10.4;4.8;2.2
74434;PMS7003;62867;52.038;29.256;2023-03-01T23:59:14;7.6;6;2.8
